Time;durP1;ratioP1;P1;durP2;ratioP2;P2;SDS_P1;SDS_P2;PMS_P1;PMS_P2;Temp;Humidity;BMP_temperature;BMP_pressure;BME280_temperature;BME280_humidity;BME280_pressure;Samples;Min_cycle;Max_cycle;Signal;HPM_P1;HPM_P2
2022/08/14 00:02:02;;;;;;;7.22;5.72;;;20.90;97.30;;;;;;5018958;28;20056;-71
2022/08/14 00:04:28;;;;;;;8.38;5.07;;;20.90;97.20;;;;;;5035590;28;20049;-70
2022/08/14 00:06:54;;;;;;;8.43;5.63;;;20.90;97.30;;;;;;5036028;28;20462;-71
2022/08/14 00:09:19;;;;;;;6.20;5.25;;;20.80;97.70;;;;;;5035677;28;20044;-71
2022/08/14 00:11:45;;;;;;;6.68;5.57;;;20.80;97.70;;;;;;5035985;28;20491;-71
2022/08/14 00:14:10;;;;;;;6.72;5.25;;;20.80;97.90;;;;;;5035784;28;20037;-70
2022/08/14 00:16:36;;;;;;;9.50;5.90;;;20.60;98.10;;;;;;5035803;28;20053;-71
2022/08/14 00:19:03;;;;;;;8.27;5.35;;;20.60;98.30;;;;;;5034629;28;20370;-71
2022/08/14 00:21:28;;;;;;;8.27;5.43;;;20.50;98.40;;;;;;5001761;28;20059;-70
2022/08/14 00:23:55;;;;;;;6.97;5.50;;;20.40;98.50;;;;;;5035711;28;20362;-70
2022/08/14 00:26:22;;;;;;;8.73;6.50;;;20.40;98.70;;;;;;5035943;28;20053;-70
2022/08/14 00:28:48;;;;;;;10.23;6.05;;;20.30;98.90;;;;;;5035417;28;20053;-72
2022/08/14 00:31:14;;;;;;;9.23;5.45;;;20.30;98.90;;;;;;5034924;28;20113;-71
2022/08/14 00:33:40;;;;;;;10.95;6.20;;;20.30;99.60;;;;;;5035390;28;20123;-71
2022/08/14 00:36:06;;;;;;;9.10;6.00;;;20.30;99.60;;;;;;4984708;28;20049;-70
2022/08/14 00:38:32;;;;;;;7.70;6.25;;;20.20;99.90;;;;;;5018013;28;20446;-71
2022/08/14 00:40:58;;;;;;;10.18;5.93;;;20.20;99.80;;;;;;5034958;28;20091;-70
2022/08/14 00:43:23;;;;;;;8.52;6.00;;;20.20;99.90;;;;;;5035525;28;20045;-71
2022/08/14 00:45:49;;;;;;;8.05;5.95;;;20.10;99.90;;;;;;5035254;28;20084;-70
2022/08/14 00:48:17;;;;;;;7.32;6.15;;;20.10;99.90;;;;;;5034892;28;20045;-71
2022/08/14 00:50:43;;;;;;;7.80;6.00;;;20.10;99.90;;;;;;5035011;28;20045;-71
2022/08/14 00:53:09;;;;;;;9.00;6.00;;;20.10;99.90;;;;;;5035305;28;20049;-70
2022/08/14 00:55:40;;;;;;;9.27;6.32;;;20.00;99.90;;;;;;5035042;28;20361;-70
2022/08/14 01:00:51;;;;;;;8.23;5.95;;;20.00;99.90;;;;;;5034850;28;20385;-71
2022/08/14 01:03:20;;;;;;;10.15;6.43;;;20.00;99.90;;;;;;5034937;28;20089;-71
2022/08/14 01:05:49;;;;;;;11.05;7.20;;;19.90;99.90;;;;;;5035487;28;20412;-71
2022/08/14 01:08:24;;;;;;;9.35;6.40;;;19.90;99.90;;;;;;5035132;28;20047;-70
2022/08/14 01:10:50;;;;;;;11.88;7.05;;;19.70;99.90;;;;;;5034328;28;20042;-70
2022/08/14 01:13:19;;;;;;;9.93;6.88;;;19.80;99.90;;;;;;5034869;28;20095;-71
2022/08/14 01:15:47;;;;;;;10.50;6.65;;;19.70;99.90;;;;;;5034181;28;20473;-70
2022/08/14 01:21:08;;;;;;;12.20;7.63;;;19.70;99.90;;;;;;5016858;28;20084;-70
2022/08/14 01:23:35;;;;;;;12.80;7.63;;;19.70;99.90;;;;;;5034732;28;20042;-70
2022/08/14 01:26:02;;;;;;;8.68;7.32;;;19.70;99.90;;;;;;5034465;28;20084;-70
2022/08/14 01:28:30;;;;;;;8.88;7.07;;;19.60;99.90;;;;;;5034389;28;20102;-71
2022/08/14 01:30:57;;;;;;;16.27;8.30;;;19.60;99.90;;;;;;5049971;28;20451;-70
2022/08/14 01:33:28;;;;;;;15.15;6.93;;;19.60;99.90;;;;;;5053182;28;20114;-71
2022/08/14 01:35:59;;;;;;;10.30;7.72;;;19.60;99.90;;;;;;5017493;28;20523;-71
2022/08/14 01:38:33;;;;;;;11.45;7.50;;;19.50;99.90;;;;;;5035039;28;20052;-70
2022/08/14 01:41:09;;;;;;;11.68;7.53;;;19.50;99.90;;;;;;5034712;28;20049;-71
2022/08/14 01:44:04;;;;;;;15.15;6.82;;;19.50;99.90;;;;;;5034804;28;20335;-71
2022/08/14 01:46:35;;;;;;;9.27;7.32;;;19.50;99.90;;;;;;5032642;28;20108;-71
2022/08/14 01:49:07;;;;;;;9.75;7.50;;;19.40;99.90;;;;;;5034928;28;20473;-72
2022/08/14 01:51:34;;;;;;;9.93;8.27;;;19.40;99.90;;;;;;5034657;28;20045;-71
2022/08/14 01:54:04;;;;;;;9.60;7.38;;;19.40;99.90;;;;;;5034192;28;20564;-71
2022/08/14 01:56:36;;;;;;;11.77;7.68;;;19.40;99.90;;;;;;5034388;28;20049;-70
2022/08/14 01:59:03;;;;;;;10.65;7.38;;;19.40;99.90;;;;;;5034489;28;20049;-71
2022/08/14 02:01:29;;;;;;;10.93;8.70;;;19.30;99.90;;;;;;5034041;28;20370;-71
2022/08/14 02:03:54;;;;;;;12.13;7.90;;;19.30;99.90;;;;;;5034465;28;20045;-70
2022/08/14 02:06:20;;;;;;;9.70;7.82;;;19.30;99.90;;;;;;5035149;28;20053;-71
2022/08/14 02:08:46;;;;;;;11.10;7.75;;;19.30;99.90;;;;;;5034362;28;20426;-70
2022/08/14 02:11:21;;;;;;;12.00;7.60;;;19.30;99.90;;;;;;5034036;28;20045;-70
2022/08/14 02:14:03;;;;;;;15.00;8.05;;;19.30;99.90;;;;;;5034326;28;20060;-70
2022/08/14 02:16:35;;;;;;;16.13;8.98;;;19.30;99.90;;;;;;5034790;28;20119;-71
2022/08/14 02:19:05;;;;;;;13.25;9.30;;;19.30;99.90;;;;;;5034213;28;20046;-70
2022/08/14 02:21:31;;;;;;;10.43;8.77;;;19.30;99.90;;;;;;5034031;28;20051;-72
2022/08/14 02:24:00;;;;;;;11.05;8.70;;;19.30;99.90;;;;;;5034078;28;20421;-70
2022/08/14 02:26:36;;;;;;;11.40;8.57;;;19.30;99.90;;;;;;5034339;28;20073;-71
2022/08/14 02:29:09;;;;;;;10.88;7.95;;;19.30;99.90;;;;;;5016281;28;20144;-71
2022/08/14 02:31:39;;;;;;;10.27;8.38;;;19.30;99.90;;;;;;5034304;28;20344;-71
2022/08/14 02:34:17;;;;;;;10.48;7.90;;;19.20;99.90;;;;;;5033981;28;20080;-70
2022/08/14 02:36:44;;;;;;;11.02;8.93;;;19.20;99.90;;;;;;5033807;28;20041;-70
2022/08/14 02:39:11;;;;;;;13.10;9.07;;;19.20;99.90;;;;;;5033971;28;20401;-70
2022/08/14 02:41:37;;;;;;;10.80;8.52;;;19.10;99.90;;;;;;5035788;28;20122;-71
2022/08/14 02:44:05;;;;;;;9.80;8.18;;;19.10;99.90;;;;;;5037795;28;20041;-71
2022/08/14 02:46:30;;;;;;;11.98;9.13;;;19.10;99.90;;;;;;5037439;28;20041;-70
2022/08/14 02:48:57;;;;;;;11.88;8.23;;;19.10;99.90;;;;;;5037413;28;20385;-71
2022/08/14 02:51:22;;;;;;;13.57;9.38;;;19.10;99.90;;;;;;5037466;28;20037;-71
2022/08/14 02:53:48;;;;;;;11.93;8.90;;;19.00;99.90;;;;;;5036731;28;20056;-71
2022/08/14 02:56:15;;;;;;;10.45;8.30;;;19.00;99.90;;;;;;5037402;28;20045;-70
2022/08/14 02:58:50;;;;;;;11.55;9.25;;;19.10;99.90;;;;;;5037298;28;20042;-71
2022/08/14 03:01:21;;;;;;;13.27;8.75;;;19.00;99.90;;;;;;5037202;28;20047;-70
2022/08/14 03:03:48;;;;;;;12.38;9.52;;;19.00;99.90;;;;;;5019797;28;20396;-71
2022/08/14 03:06:15;;;;;;;10.20;9.00;;;18.90;99.90;;;;;;5037556;28;20365;-70
2022/08/14 03:08:42;;;;;;;11.77;9.75;;;18.90;99.90;;;;;;5037112;28;20053;-70
2022/08/14 03:11:10;;;;;;;14.13;10.43;;;18.80;99.90;;;;;;5037100;28;20424;-70
2022/08/14 03:13:38;;;;;;;12.15;9.25;;;18.90;99.90;;;;;;5036902;28;20476;-70
2022/08/14 03:16:13;;;;;;;12.20;9.80;;;18.80;99.90;;;;;;5037157;28;20510;-70
2022/08/14 03:18:43;;;;;;;14.38;8.85;;;18.80;99.90;;;;;;5036866;28;20465;-71
2022/08/14 03:21:13;;;;;;;17.55;9.55;;;18.80;99.90;;;;;;5037175;28;20045;-70
2022/08/14 03:23:40;;;;;;;11.30;9.18;;;18.80;99.90;;;;;;5036585;28;20045;-71
2022/08/14 03:26:08;;;;;;;11.27;8.55;;;18.80;99.90;;;;;;5037120;28;20080;-71
2022/08/14 03:28:34;;;;;;;11.35;9.35;;;18.80;99.90;;;;;;5036377;28;20037;-71
2022/08/14 03:31:00;;;;;;;11.90;9.45;;;18.70;99.90;;;;;;5028956;28;20059;-70
2022/08/14 03:33:27;;;;;;;18.00;8.98;;;18.70;99.90;;;;;;5057165;28;20049;-71
2022/08/14 03:35:53;;;;;;;13.75;9.50;;;18.70;99.90;;;;;;5039924;28;20398;-70
2022/08/14 03:38:19;;;;;;;10.88;9.77;;;18.60;99.90;;;;;;5036840;28;20042;-70
2022/08/14 03:40:46;;;;;;;13.23;9.38;;;18.70;99.90;;;;;;5036837;28;20530;-70
2022/08/14 03:43:12;;;;;;;11.80;10.23;;;18.70;99.90;;;;;;5036973;28;20050;-71
2022/08/14 03:45:39;;;;;;;12.32;9.85;;;18.60;99.90;;;;;;5036510;28;20120;-71
2022/08/14 03:48:15;;;;;;;12.45;9.85;;;18.60;99.90;;;;;;5036629;28;20045;-71
2022/08/14 03:50:43;;;;;;;14.52;9.63;;;18.50;99.90;;;;;;5036530;28;20041;-70
2022/08/14 03:53:10;;;;;;;12.45;9.63;;;18.40;99.90;;;;;;5036595;28;20053;-70
2022/08/14 03:55:37;;;;;;;12.07;9.35;;;18.50;99.90;;;;;;5036149;28;20049;-71
2022/08/14 03:58:04;;;;;;;12.32;9.13;;;18.50;99.90;;;;;;5036205;28;20045;-71
2022/08/14 04:00:30;;;;;;;12.43;9.82;;;18.50;99.90;;;;;;5036030;28;20454;-70
2022/08/14 04:02:55;;;;;;;13.02;10.27;;;18.50;99.90;;;;;;5036500;28;20048;-71
2022/08/14 04:05:21;;;;;;;11.68;9.65;;;18.50;99.90;;;;;;5036411;28;20524;-71
2022/08/14 04:07:47;;;;;;;13.77;10.73;;;18.50;99.90;;;;;;5035660;28;20033;-70
2022/08/14 04:10:12;;;;;;;13.98;10.68;;;18.50;99.90;;;;;;5036127;28;20034;-70
2022/08/14 04:12:38;;;;;;;14.07;9.98;;;18.60;99.90;;;;;;5018327;28;20064;-70
2022/08/14 04:15:04;;;;;;;13.48;10.52;;;18.40;99.90;;;;;;5044380;28;20433;-71
2022/08/14 04:17:32;;;;;;;13.88;10.77;;;18.60;99.90;;;;;;5056260;28;20368;-71
2022/08/14 04:20:02;;;;;;;13.02;10.88;;;18.60;99.90;;;;;;5040305;28;20053;-70
2022/08/14 04:22:30;;;;;;;13.30;10.48;;;18.50;99.90;;;;;;5036108;28;20444;-72
2022/08/14 04:24:57;;;;;;;11.93;10.13;;;18.50;99.90;;;;;;5035830;28;20365;-71
2022/08/14 04:27:22;;;;;;;11.20;10.00;;;18.60;99.90;;;;;;5035844;28;20037;-71
2022/08/14 04:29:48;;;;;;;14.68;9.60;;;18.50;99.90;;;;;;5035509;28;20144;-70
2022/08/14 04:32:14;;;;;;;16.02;11.20;;;18.50;99.90;;;;;;5018380;28;20444;-70
2022/08/14 04:34:40;;;;;;;13.60;11.10;;;18.50;99.90;;;;;;5018415;28;20111;-71
2022/08/14 04:45:31;;;;;;;15.70;10.30;;;18.60;99.90;;;;;;5035004;28;20041;-71
2022/08/14 04:48:12;;;;;;;13.05;11.07;;;18.60;99.90;;;;;;5035364;28;20053;-70
2022/08/14 04:50:44;;;;;;;25.15;11.73;;;18.70;99.90;;;;;;5035408;28;20159;-70
2022/08/14 04:53:14;;;;;;;13.23;10.60;;;18.70;99.90;;;;;;5035266;28;20045;-70
2022/08/14 04:55:43;;;;;;;14.27;11.27;;;18.80;99.90;;;;;;5035317;28;20055;-70
2022/08/14 04:58:09;;;;;;;16.88;10.88;;;18.80;99.90;;;;;;5015718;28;20493;-70
2022/08/14 05:00:38;;;;;;;13.23;10.77;;;18.80;99.90;;;;;;5039082;28;20038;-66
2022/08/14 05:03:06;;;;;;;14.25;10.50;;;18.90;99.90;;;;;;5031104;28;20091;-69
2022/08/14 05:05:31;;;;;;;13.63;10.98;;;19.00;99.90;;;;;;5036190;28;20334;-70
2022/08/14 05:08:08;;;;;;;14.25;10.20;;;19.00;99.90;;;;;;5055071;28;20111;-69
2022/08/14 05:10:36;;;;;;;14.57;11.05;;;19.00;99.90;;;;;;5045194;28;20124;-71
2022/08/14 05:13:04;;;;;;;13.73;10.55;;;19.10;99.90;;;;;;5035328;28;20103;-68
2022/08/14 05:15:30;;;;;;;15.00;10.90;;;19.10;99.90;;;;;;5034951;28;20111;-69
2022/08/14 05:17:56;;;;;;;17.95;11.07;;;19.20;99.90;;;;;;5034758;28;20116;-70
2022/08/14 05:20:23;;;;;;;16.60;10.80;;;19.20;99.90;;;;;;5034371;28;20069;-68
2022/08/14 05:22:48;;;;;;;16.55;12.38;;;19.30;99.90;;;;;;5016811;28;20081;-68
2022/08/14 05:25:14;;;;;;;13.23;10.98;;;19.30;99.90;;;;;;5053034;28;20064;-69
2022/08/14 05:27:40;;;;;;;15.63;10.55;;;19.30;99.90;;;;;;5035027;28;20128;-70
2022/08/14 05:30:07;;;;;;;15.32;11.18;;;19.40;99.90;;;;;;5034321;28;20057;-69
2022/08/14 05:32:32;;;;;;;14.32;11.00;;;19.40;99.90;;;;;;5034805;28;20051;-68
2022/08/14 05:34:58;;;;;;;12.68;11.07;;;19.50;99.90;;;;;;5034582;28;20041;-69
2022/08/14 05:37:26;;;;;;;13.40;10.38;;;19.50;99.90;;;;;;5035143;28;20081;-70
2022/08/14 05:39:51;;;;;;;14.63;11.25;;;19.60;99.90;;;;;;5034848;28;20088;-69
2022/08/14 05:42:17;;;;;;;14.45;12.32;;;19.60;99.90;;;;;;5034928;28;20084;-68
2022/08/14 05:44:42;;;;;;;14.95;11.70;;;19.70;99.90;;;;;;5016331;28;20052;-67
2022/08/14 05:47:10;;;;;;;13.15;10.75;;;19.80;99.90;;;;;;5034985;28;20097;-68
2022/08/14 05:49:36;;;;;;;19.77;11.40;;;20.20;99.90;;;;;;5017329;28;20064;-68
2022/08/14 05:52:02;;;;;;;13.30;11.30;;;21.00;99.90;;;;;;5017422;28;20045;-68
2022/08/14 05:54:28;;;;;;;11.85;10.55;;;22.30;99.90;;;;;;5034577;28;20049;-69
2022/08/14 05:56:53;;;;;;;12.38;9.77;;;23.50;99.90;;;;;;5035002;28;20045;-69
2022/08/14 05:59:19;;;;;;;12.98;9.82;;;24.60;99.90;;;;;;5017280;28;20057;-69
2022/08/14 06:01:44;;;;;;;12.18;9.60;;;25.50;98.10;;;;;;5034650;28;20513;-71
2022/08/14 06:04:10;;;;;;;13.82;9.10;;;26.00;98.30;;;;;;5013603;28;20355;-70
2022/08/14 06:06:36;;;;;;;12.52;9.02;;;26.70;97.90;;;;;;5027021;28;20115;-69
2022/08/14 06:09:01;;;;;;;11.55;8.88;;;27.00;96.80;;;;;;5034636;28;20120;-69
2022/08/14 06:11:27;;;;;;;9.95;8.32;;;27.70;94.40;;;;;;5035066;28;20107;-73
2022/08/14 06:13:53;;;;;;;11.13;8.50;;;28.00;94.90;;;;;;5020749;28;20046;-70
2022/08/14 06:16:18;;;;;;;14.30;7.90;;;28.40;94.00;;;;;;5035390;28;20033;-71
2022/08/14 06:18:48;;;;;;;12.57;8.25;;;28.80;94.30;;;;;;5038035;28;20511;-71
2022/08/14 06:21:14;;;;;;;15.90;7.72;;;29.10;92.90;;;;;;5038337;28;20396;-71
2022/08/14 06:23:40;;;;;;;9.48;6.75;;;29.70;93.50;;;;;;5038197;28;20045;-72
2022/08/14 06:26:05;;;;;;;10.68;7.85;;;29.90;92.80;;;;;;5038185;28;20129;-71
2022/08/14 06:28:31;;;;;;;11.75;7.35;;;30.30;92.10;;;;;;5020500;28;20060;-70
2022/08/14 06:30:57;;;;;;;8.45;6.80;;;30.00;92.00;;;;;;5037655;28;20544;-72
2022/08/14 06:33:23;;;;;;;10.68;7.45;;;30.40;92.10;;;;;;5037392;28;20045;-71
2022/08/14 06:35:49;;;;;;;9.30;7.43;;;30.50;91.60;;;;;;5037454;28;20446;-71
2022/08/14 06:38:20;;;;;;;8.38;6.90;;;30.60;91.00;;;;;;5037639;28;20045;-71
2022/08/14 06:40:47;;;;;;;8.68;7.28;;;31.00;91.50;;;;;;5038035;28;20052;-73
2022/08/14 06:43:16;;;;;;;9.30;6.63;;;30.90;90.40;;;;;;5021244;28;20049;-72
2022/08/14 06:45:43;;;;;;;8.98;7.15;;;31.30;90.80;;;;;;5038182;28;20049;-74
2022/08/14 06:48:23;;;;;;;10.95;7.40;;;31.20;90.80;;;;;;5037361;28;20088;-73
2022/08/14 06:50:51;;;;;;;7.00;5.65;;;31.60;89.70;;;;;;5037716;28;20458;-73
2022/08/14 06:53:18;;;;;;;9.05;6.88;;;31.90;90.50;;;;;;5037771;28;20056;-74
2022/08/14 06:55:45;;;;;;;10.07;6.28;;;32.10;90.20;;;;;;5037505;28;20045;-73
2022/08/14 06:58:12;;;;;;;11.27;6.88;;;32.50;89.70;;;;;;5016503;28;20362;-73
2022/08/14 07:00:38;;;;;;;8.30;6.50;;;32.80;87.10;;;;;;5017752;28;20046;-72
2022/08/14 07:05:48;;;;;;;11.20;6.72;;;31.60;89.30;;;;;;5017911;28;20049;-73
2022/08/14 07:08:16;;;;;;;9.57;6.93;;;30.40;90.10;;;;;;5032292;28;20045;-72
2022/08/14 07:10:47;;;;;;;10.88;6.88;;;29.60;90.50;;;;;;5037295;28;20120;-73
2022/08/14 07:13:13;;;;;;;8.48;6.63;;;28.60;91.00;;;;;;5037494;28;20065;-72
2022/08/14 07:15:41;;;;;;;7.85;6.35;;;28.20;91.70;;;;;;5037423;28;20438;-73
2022/08/14 07:18:08;;;;;;;9.23;5.88;;;27.90;92.20;;;;;;5036984;28;20089;-72
2022/08/14 07:20:34;;;;;;;8.32;6.50;;;27.40;92.40;;;;;;5037351;28;20045;-73
2022/08/14 07:23:02;;;;;;;7.10;5.82;;;26.90;92.80;;;;;;5037232;28;20041;-73
2022/08/14 07:25:28;;;;;;;8.13;5.93;;;26.90;93.00;;;;;;5037294;28;20461;-73
2022/08/14 07:27:54;;;;;;;8.73;5.97;;;27.20;93.50;;;;;;5036481;28;20041;-71
2022/08/14 07:30:21;;;;;;;8.15;5.95;;;27.90;93.00;;;;;;5036839;28;20049;-71
2022/08/14 07:32:47;;;;;;;13.35;5.93;;;28.80;92.60;;;;;;5037198;28;20050;-71
2022/08/14 07:35:12;;;;;;;11.05;5.63;;;29.70;92.20;;;;;;5036794;28;20186;-70
2022/08/14 07:37:38;;;;;;;8.30;5.30;;;30.50;91.90;;;;;;5036469;28;20467;-72
2022/08/14 07:40:05;;;;;;;7.15;5.93;;;30.90;91.20;;;;;;5036842;28;20049;-72
2022/08/14 07:42:31;;;;;;;8.38;5.45;;;31.00;90.30;;;;;;5036774;28;20037;-70
2022/08/14 07:44:58;;;;;;;10.18;5.20;;;31.40;90.20;;;;;;5036696;28;20365;-71
2022/08/14 07:47:24;;;;;;;8.93;5.80;;;31.60;90.40;;;;;;5036461;28;20041;-71
2022/08/14 07:50:12;;;;;;;6.22;4.63;;;31.70;89.90;;;;;;5036710;28;20045;-70
2022/08/14 07:52:39;;;;;;;6.80;5.10;;;31.90;89.10;;;;;;5036683;28;20143;-71
2022/08/14 07:55:07;;;;;;;6.10;4.88;;;31.70;89.60;;;;;;5036535;28;20057;-70
2022/08/14 07:57:34;;;;;;;8.75;5.25;;;31.70;89.10;;;;;;5036412;28;20037;-72
2022/08/14 08:00:00;;;;;;;7.82;5.20;;;32.20;89.30;;;;;;5036393;28;20489;-72
2022/08/14 08:02:29;;;;;;;7.55;4.80;;;31.80;88.50;;;;;;5036346;28;20037;-72
2022/08/14 08:04:56;;;;;;;10.35;4.72;;;31.70;88.90;;;;;;5036396;28;20092;-72
2022/08/14 08:07:25;;;;;;;10.13;4.90;;;32.10;89.20;;;;;;5036042;28;20084;-72
2022/08/14 08:09:55;;;;;;;7.63;5.00;;;31.90;88.30;;;;;;5036308;28;20049;-70
2022/08/14 08:12:21;;;;;;;9.15;4.95;;;31.80;88.20;;;;;;5036231;28;20120;-70
2022/08/14 08:14:50;;;;;;;6.43;4.70;;;31.20;89.10;;;;;;5036041;28;20045;-72
2022/08/14 08:17:19;;;;;;;6.32;4.07;;;31.20;89.70;;;;;;5036156;28;20037;-71
2022/08/14 08:19:47;;;;;;;6.93;4.35;;;31.70;89.60;;;;;;5040668;28;20124;-71
2022/08/14 08:22:13;;;;;;;6.03;4.38;;;31.90;89.60;;;;;;5035062;28;20049;-70
2022/08/14 08:24:38;;;;;;;4.97;4.10;;;32.30;88.80;;;;;;5038203;28;20365;-70
2022/08/14 08:27:15;;;;;;;6.25;3.83;;;32.60;88.00;;;;;;5042770;28;20049;-69
2022/08/14 08:29:41;;;;;;;4.47;3.60;;;32.80;87.30;;;;;;5042380;28;20057;-69
2022/08/14 08:32:07;;;;;;;7.82;4.15;;;32.90;87.20;;;;;;5043372;28;20052;-70
2022/08/14 08:34:44;;;;;;;6.68;3.72;;;33.10;86.70;;;;;;5035928;28;20045;-71
2022/08/14 08:37:10;;;;;;;5.47;3.70;;;33.20;85.50;;;;;;5034043;28;20109;-69
2022/08/14 08:39:44;;;;;;;7.18;4.05;;;33.40;86.60;;;;;;5037517;28;20125;-70
2022/08/14 08:42:10;;;;;;;14.13;3.85;;;33.40;86.30;;;;;;5031007;28;20034;-72
2022/08/14 08:44:36;;;;;;;5.63;4.30;;;33.30;85.80;;;;;;5034472;28;20045;-72
2022/08/14 08:47:07;;;;;;;8.07;4.22;;;33.20;85.10;;;;;;5035240;28;20390;-70
2022/08/14 08:49:41;;;;;;;7.93;4.07;;;33.40;86.10;;;;;;5040833;28;20042;-70
2022/08/14 08:52:07;;;;;;;9.85;3.53;;;33.50;85.40;;;;;;5035690;28;20430;-69
2022/08/14 08:54:33;;;;;;;6.20;3.80;;;33.50;85.80;;;;;;5035298;28;20073;-71
2022/08/14 08:56:59;;;;;;;4.95;3.50;;;33.30;85.20;;;;;;5035078;28;20057;-71
2022/08/14 08:59:30;;;;;;;6.35;3.40;;;33.00;85.70;;;;;;5035746;28;20049;-70
2022/08/14 09:02:05;;;;;;;8.95;3.97;;;32.90;86.00;;;;;;5035647;28;20052;-70
2022/08/14 09:04:36;;;;;;;7.70;4.28;;;32.70;84.80;;;;;;5035452;28;20083;-72
2022/08/14 09:07:02;;;;;;;9.35;3.72;;;32.20;84.50;;;;;;5034875;28;20059;-71
2022/08/14 09:09:30;;;;;;;6.68;3.75;;;32.00;85.60;;;;;;5035603;28;20120;-69
2022/08/14 09:11:59;;;;;;;8.05;4.03;;;31.40;86.50;;;;;;5035063;28;20091;-69
2022/08/14 09:14:30;;;;;;;4.70;3.58;;;31.10;86.50;;;;;;5033062;28;20091;-71
2022/08/14 09:16:57;;;;;;;6.32;3.83;;;31.10;87.90;;;;;;5016870;28;20363;-70
2022/08/14 09:19:24;;;;;;;6.40;3.50;;;30.80;87.40;;;;;;5024524;28;20042;-70
2022/08/14 09:21:50;;;;;;;8.38;3.78;;;30.10;87.10;;;;;;5030672;28;20124;-70
2022/08/14 09:24:16;;;;;;;6.03;3.55;;;30.00;88.10;;;;;;5017006;28;20132;-70
2022/08/14 09:26:43;;;;;;;4.93;3.53;;;29.80;88.50;;;;;;5034221;28;20339;-69
2022/08/14 09:29:10;;;;;;;5.60;3.67;;;29.70;88.50;;;;;;5034009;28;20037;-71
2022/08/14 09:31:47;;;;;;;10.32;3.80;;;29.60;89.00;;;;;;5034369;28;20144;-70
2022/08/14 09:34:35;;;;;;;6.63;4.10;;;29.50;89.20;;;;;;5034266;28;20449;-71
2022/08/14 09:37:18;;;;;;;5.38;4.40;;;29.70;90.10;;;;;;5030711;28;20042;-71
2022/08/14 09:40:10;;;;;;;5.78;4.07;;;30.10;88.70;;;;;;5020349;28;20049;-70
2022/08/14 09:42:51;;;;;;;7.07;4.25;;;30.20;89.20;;;;;;5014078;28;20362;-69
2022/08/14 09:45:43;;;;;;;7.03;4.50;;;30.30;89.00;;;;;;5014181;28;20058;-70
2022/08/14 09:48:22;;;;;;;8.85;4.63;;;30.60;88.60;;;;;;5015746;28;20519;-70
2022/08/14 09:50:56;;;;;;;6.90;3.88;;;31.00;88.30;;;;;;5036573;28;20053;-70
2022/08/14 09:53:34;;;;;;;11.05;4.00;;;31.20;88.40;;;;;;5038883;28;20124;-71
2022/08/14 09:56:00;;;;;;;7.78;4.07;;;30.90;87.00;;;;;;5038639;28;20060;-71
2022/08/14 09:58:43;;;;;;;5.45;3.75;;;30.60;86.90;;;;;;5038378;28;20045;-69
2022/08/14 10:01:11;;;;;;;6.55;3.78;;;30.20;87.20;;;;;;5038168;28;20115;-71
2022/08/14 10:03:55;;;;;;;5.85;3.50;;;29.90;87.60;;;;;;5038281;28;20115;-71
2022/08/14 10:06:26;;;;;;;5.80;3.67;;;29.90;88.30;;;;;;5020980;28;20045;-70
2022/08/14 10:08:59;;;;;;;5.30;3.35;;;29.90;88.60;;;;;;5038369;28;20088;-70
2022/08/14 10:11:34;;;;;;;5.25;3.47;;;29.80;87.20;;;;;;5038358;28;20049;-69
2022/08/14 10:14:25;;;;;;;4.82;3.65;;;29.80;88.10;;;;;;5038763;28;20349;-71
2022/08/14 10:16:53;;;;;;;3.90;3.20;;;29.90;87.90;;;;;;5038399;28;20049;-70
2022/08/14 10:19:21;;;;;;;6.32;3.47;;;30.00;88.30;;;;;;5038348;28;20060;-71
2022/08/14 10:22:07;;;;;;;5.57;3.35;;;30.10;88.50;;;;;;5038540;28;20041;-70
2022/08/14 10:24:40;;;;;;;4.75;3.33;;;30.30;88.10;;;;;;5038120;28;20037;-71
2022/08/14 10:27:17;;;;;;;4.22;3.30;;;30.30;87.10;;;;;;5038104;28;20055;-71
2022/08/14 10:29:48;;;;;;;4.93;3.50;;;30.20;87.70;;;;;;5038027;28;20064;-70
2022/08/14 10:32:14;;;;;;;7.30;3.50;;;30.10;87.80;;;;;;5020924;28;20124;-70
2022/08/14 10:34:40;;;;;;;5.72;3.20;;;30.10;87.60;;;;;;5038399;28;20132;-70
2022/08/14 10:37:09;;;;;;;6.57;3.38;;;29.70;87.20;;;;;;5038196;28;20179;-70
2022/08/14 10:39:36;;;;;;;4.15;3.10;;;29.90;87.60;;;;;;5037503;28;20115;-70
2022/08/14 10:42:05;;;;;;;4.43;3.30;;;30.00;87.60;;;;;;5037828;28;20034;-69
2022/08/14 10:44:47;;;;;;;4.15;3.00;;;30.10;86.60;;;;;;5037978;28;20049;-69
2022/08/14 10:47:14;;;;;;;4.90;3.60;;;30.10;87.50;;;;;;5037741;28;20045;-70
2022/08/14 10:49:58;;;;;;;4.95;3.47;;;30.00;87.10;;;;;;5037699;28;20125;-70
2022/08/14 10:52:33;;;;;;;7.10;3.67;;;30.00;87.50;;;;;;5037818;28;20128;-68
2022/08/14 10:55:18;;;;;;;4.93;3.80;;;30.10;87.40;;;;;;5037836;28;20041;-70
2022/08/14 10:57:48;;;;;;;6.32;3.83;;;30.00;87.60;;;;;;5037680;28;20045;-70
2022/08/14 11:00:17;;;;;;;7.35;3.95;;;30.00;88.30;;;;;;5038028;28;20049;-69
2022/08/14 11:02:43;;;;;;;6.18;4.10;;;30.10;87.80;;;;;;5036931;28;20140;-71
2022/08/14 11:05:14;;;;;;;4.25;3.47;;;30.00;87.70;;;;;;5037263;28;20474;-69
2022/08/14 11:08:00;;;;;;;6.50;3.90;;;30.10;88.20;;;;;;5037417;28;20045;-70
2022/08/14 11:10:54;;;;;;;5.75;3.72;;;30.00;88.10;;;;;;5037395;28;20084;-69
2022/08/14 11:13:22;;;;;;;7.30;3.90;;;30.30;89.10;;;;;;5036276;28;20049;-69
2022/08/14 11:15:48;;;;;;;6.80;3.78;;;30.50;86.70;;;;;;5037679;28;20342;-69
2022/08/14 11:18:17;;;;;;;8.30;3.97;;;30.50;87.40;;;;;;5037206;28;20072;-70
2022/08/14 11:20:54;;;;;;;6.25;4.32;;;30.70;88.00;;;;;;5037693;28;20045;-70
2022/08/14 11:23:25;;;;;;;6.93;4.30;;;30.90;86.40;;;;;;5019609;28;20141;-70
2022/08/14 11:25:51;;;;;;;5.88;4.07;;;31.10;86.70;;;;;;5037296;28;20532;-70
2022/08/14 11:28:21;;;;;;;6.57;4.07;;;31.30;86.90;;;;;;5037388;28;20492;-69
2022/08/14 11:30:49;;;;;;;6.05;4.32;;;31.20;87.00;;;;;;5037176;28;20068;-69
2022/08/14 11:33:15;;;;;;;6.15;4.15;;;31.30;85.70;;;;;;5036548;28;20058;-69
2022/08/14 11:35:46;;;;;;;5.70;3.90;;;31.20;85.90;;;;;;5036878;28;20095;-70
2022/08/14 11:38:11;;;;;;;5.05;3.90;;;30.90;85.70;;;;;;5037102;28;20041;-69
2022/08/14 11:40:38;;;;;;;4.90;4.30;;;30.70;85.80;;;;;;5037159;28;20045;-70
2022/08/14 11:43:06;;;;;;;5.10;4.07;;;30.60;86.80;;;;;;5036652;28;20046;-70
2022/08/14 11:45:38;;;;;;;5.28;3.83;;;30.70;85.90;;;;;;5036520;28;20041;-69
2022/08/14 11:48:22;;;;;;;8.13;4.55;;;30.80;86.10;;;;;;5036657;28;20048;-69
2022/08/14 11:50:49;;;;;;;6.03;3.92;;;30.70;86.40;;;;;;5036535;28;20045;-70
2022/08/14 11:53:21;;;;;;;6.97;4.43;;;30.90;86.50;;;;;;5036594;28;20404;-70
2022/08/14 11:55:55;;;;;;;6.82;4.00;;;31.00;86.40;;;;;;5036540;28;20158;-70
2022/08/14 11:58:26;;;;;;;8.30;4.22;;;31.10;85.50;;;;;;5037042;28;20045;-69
2022/08/14 12:00:58;;;;;;;5.50;4.13;;;31.20;87.50;;;;;;5035836;28;20045;-70
2022/08/14 12:03:35;;;;;;;7.75;4.65;;;31.20;85.20;;;;;;5031115;28;20069;-70
2022/08/14 12:06:06;;;;;;;7.05;4.05;;;31.40;85.10;;;;;;5019660;28;20073;-69
2022/08/14 12:08:36;;;;;;;8.20;4.50;;;31.40;84.50;;;;;;5030940;28;20038;-70
2022/08/14 12:11:03;;;;;;;10.63;4.25;;;31.30;84.70;;;;;;5025287;28;20053;-70
2022/08/14 12:13:33;;;;;;;8.93;4.15;;;31.30;85.00;;;;;;5032778;28;20116;-72
2022/08/14 12:16:06;;;;;;;7.30;4.18;;;31.40;85.40;;;;;;5035000;28;20516;-72
2022/08/14 12:18:40;;;;;;;5.43;4.20;;;31.60;85.80;;;;;;5017777;28;20046;-72
2022/08/14 12:21:22;;;;;;;5.80;3.95;;;31.60;84.40;;;;;;5027388;28;20060;-72
2022/08/14 12:24:09;;;;;;;5.70;3.75;;;31.60;84.50;;;;;;5035256;28;20057;-73
2022/08/14 12:26:36;;;;;;;7.57;4.40;;;31.60;84.20;;;;;;5035327;28;20045;-71
2022/08/14 12:29:10;;;;;;;5.05;3.80;;;31.60;83.80;;;;;;5035160;28;20037;-71
2022/08/14 12:31:37;;;;;;;5.45;3.63;;;31.60;85.10;;;;;;5036574;28;20065;-70
2022/08/14 12:34:07;;;;;;;5.45;3.70;;;31.90;84.90;;;;;;5035192;28;20033;-72
2022/08/14 12:36:33;;;;;;;10.55;3.95;;;31.80;84.20;;;;;;5018177;28;20049;-71
2022/08/14 12:39:22;;;;;;;6.78;3.95;;;31.90;84.20;;;;;;5035641;28;20042;-70
2022/08/14 12:41:55;;;;;;;6.72;3.90;;;31.60;83.30;;;;;;5035630;28;20054;-73
2022/08/14 12:44:38;;;;;;;5.97;3.63;;;31.50;83.40;;;;;;5000896;28;20148;-72
2022/08/14 12:47:13;;;;;;;6.55;4.07;;;31.60;83.90;;;;;;5035474;28;20046;-73
2022/08/14 12:49:53;;;;;;;5.20;3.60;;;31.70;83.00;;;;;;5018226;28;20080;-72
2022/08/14 12:52:39;;;;;;;5.43;3.80;;;31.80;83.40;;;;;;5035353;28;20045;-72
2022/08/14 12:55:10;;;;;;;5.40;3.45;;;32.00;83.20;;;;;;5035358;28;20053;-73
2022/08/14 12:57:44;;;;;;;6.53;3.92;;;32.20;83.90;;;;;;5035062;28;20053;-71
2022/08/14 13:00:16;;;;;;;6.47;3.53;;;31.90;81.80;;;;;;5024785;28;20045;-72
2022/08/14 13:02:43;;;;;;;6.47;3.95;;;31.90;82.70;;;;;;5035342;28;20038;-72
2022/08/14 13:05:11;;;;;;;6.68;3.50;;;31.90;83.30;;;;;;5035207;28;20368;-72
2022/08/14 13:07:39;;;;;;;8.23;3.70;;;32.00;83.50;;;;;;5035514;28;20053;-72
2022/08/14 13:10:09;;;;;;;5.47;4.07;;;32.20;83.70;;;;;;5035357;28;20038;-71